createdAt,value
2018-05-24T00:00:11.059Z,17.42
2018-05-24T00:01:15.995Z,17.36
2018-05-24T00:02:20.551Z,17.39
2018-05-24T00:03:25.104Z,17.53
2018-05-24T00:04:29.674Z,17.56
2018-05-24T00:05:34.196Z,17.59
2018-05-24T00:06:38.758Z,17.52
2018-05-24T00:07:43.617Z,17.49
2018-05-24T00:08:48.136Z,17.54
2018-05-24T00:09:52.718Z,17.63
2018-05-24T00:10:57.315Z,17.65
2018-05-24T00:12:01.927Z,17.67
2018-05-24T00:13:06.520Z,17.79
2018-05-24T00:14:11.386Z,17.71
2018-05-24T00:15:16.135Z,17.69
2018-05-24T00:16:20.686Z,17.66
2018-05-24T00:17:25.298Z,17.84
2018-05-24T00:18:29.878Z,17.93
2018-05-24T00:19:34.411Z,17.93
2018-05-24T00:20:38.964Z,17.90
2018-05-24T00:21:43.618Z,17.74
2018-05-24T00:22:48.166Z,17.43
2018-05-24T00:23:52.768Z,17.23
2018-05-24T00:24:57.318Z,17.13
2018-05-24T00:26:01.909Z,17.06
2018-05-24T00:27:06.853Z,17.03
2018-05-24T00:28:11.449Z,17.08
2018-05-24T00:29:16.057Z,17.19
2018-05-24T00:30:20.605Z,17.25
2018-05-24T00:31:25.166Z,17.34
2018-05-24T00:32:29.721Z,17.38
2018-05-24T00:33:34.594Z,17.41
2018-05-24T00:34:39.161Z,17.46
2018-05-24T00:35:43.682Z,17.40
2018-05-24T00:36:48.255Z,17.45
2018-05-24T00:37:52.814Z,17.51
2018-05-24T00:38:57.332Z,17.53
2018-05-24T00:40:02.273Z,17.59
2018-05-24T00:41:06.884Z,17.70
2018-05-24T00:42:11.469Z,17.78
2018-05-24T00:43:16.050Z,17.87
2018-05-24T00:44:20.612Z,17.91
2018-05-24T00:45:25.172Z,17.83
2018-05-24T00:46:30.142Z,17.68
2018-05-24T00:47:34.662Z,17.66
2018-05-24T00:48:39.191Z,17.61
2018-05-24T00:49:43.736Z,17.60
2018-05-24T00:50:48.195Z,17.63
2018-05-24T00:51:52.682Z,17.61
2018-05-24T00:52:57.614Z,17.63
2018-05-24T00:54:02.103Z,17.58
2018-05-24T00:55:10.801Z,17.61
2018-05-24T00:56:15.255Z,17.63
2018-05-24T00:57:19.725Z,17.62
2018-05-24T00:58:24.205Z,17.52
2018-05-24T00:59:29.116Z,17.57
2018-05-24T01:00:33.555Z,17.45
2018-05-24T01:01:38.061Z,17.19
2018-05-24T01:02:42.547Z,16.89
2018-05-24T01:03:47.042Z,16.97
2018-05-24T01:04:51.501Z,16.79
2018-05-24T01:05:56.376Z,16.66
2018-05-24T01:07:00.864Z,16.63
2018-05-24T01:08:05.327Z,16.57
2018-05-24T01:09:09.779Z,16.65
2018-05-24T01:10:14.183Z,16.66
2018-05-24T01:11:18.618Z,16.62
2018-05-24T01:12:23.414Z,16.69
2018-05-24T01:13:27.854Z,16.77
2018-05-24T01:14:32.314Z,16.86
2018-05-24T01:15:36.778Z,16.84
2018-05-24T01:16:41.225Z,16.89
2018-05-24T01:17:45.677Z,16.95
2018-05-24T01:18:50.490Z,17.01
2018-05-24T01:19:54.929Z,17.01
2018-05-24T01:20:59.390Z,16.99
2018-05-24T01:22:03.859Z,17.05
2018-05-24T01:23:08.262Z,16.97
2018-05-24T01:24:12.729Z,16.82
2018-05-24T01:25:17.565Z,16.53
2018-05-24T01:26:22.026Z,16.33
2018-05-24T01:27:26.457Z,16.40
2018-05-24T01:28:30.920Z,16.37
2018-05-24T01:29:35.399Z,16.20
2018-05-24T01:30:39.851Z,16.27
2018-05-24T01:31:44.717Z,16.32
2018-05-24T01:32:49.165Z,16.43
2018-05-24T01:33:53.639Z,16.52
2018-05-24T01:34:58.143Z,16.52
2018-05-24T01:36:02.576Z,16.52
2018-05-24T01:37:12.281Z,16.44
2018-05-24T01:38:16.774Z,16.53
2018-05-24T01:39:21.267Z,16.65
2018-05-24T01:40:25.734Z,16.68
2018-05-24T01:41:30.240Z,16.68
2018-05-24T01:42:34.733Z,16.70
2018-05-24T01:43:39.487Z,16.56
2018-05-24T01:44:43.974Z,16.41
2018-05-24T01:45:48.551Z,16.26
2018-05-24T01:46:53.105Z,16.27
2018-05-24T01:47:57.611Z,16.31
2018-05-24T01:49:02.111Z,16.40
2018-05-24T01:50:06.915Z,16.30
2018-05-24T01:51:11.421Z,16.15
2018-05-24T01:52:15.886Z,16.05
2018-05-24T01:53:20.379Z,15.89
2018-05-24T01:54:24.853Z,15.86
2018-05-24T01:55:29.335Z,15.94
2018-05-24T01:56:34.198Z,15.92
2018-05-24T01:57:38.709Z,15.92
2018-05-24T01:58:43.277Z,15.97
2018-05-24T01:59:47.742Z,16.19
2018-05-24T02:00:52.289Z,16.26
2018-05-24T02:01:56.756Z,16.29
2018-05-24T02:03:01.654Z,16.39
2018-05-24T02:04:06.118Z,16.46
2018-05-24T02:05:10.647Z,16.51
2018-05-24T02:06:15.181Z,16.63
2018-05-24T02:07:19.689Z,16.66
2018-05-24T02:08:24.177Z,16.69
2018-05-24T02:09:28.937Z,16.81
2018-05-24T02:10:33.390Z,16.90
2018-05-24T02:11:37.900Z,16.94
2018-05-24T02:12:42.407Z,16.92
2018-05-24T02:13:46.920Z,16.92
2018-05-24T02:14:51.497Z,16.87
2018-05-24T02:15:56.490Z,16.97
2018-05-24T02:17:00.998Z,17.07
2018-05-24T02:18:05.518Z,17.19
2018-05-24T02:19:10.013Z,17.18
2018-05-24T02:20:14.491Z,17.14
2018-05-24T02:21:20.003Z,17.15
2018-05-24T02:22:24.959Z,17.24
2018-05-24T02:23:29.443Z,17.26
2018-05-24T02:24:33.931Z,17.11
2018-05-24T02:25:38.439Z,16.95
2018-05-24T02:26:42.940Z,16.93
2018-05-24T02:27:47.388Z,16.99
2018-05-24T02:28:52.220Z,17.23
2018-05-24T02:29:56.847Z,17.24
2018-05-24T02:31:01.332Z,17.24
2018-05-24T02:32:05.817Z,17.08
2018-05-24T02:33:10.314Z,16.81
2018-05-24T02:34:14.830Z,16.64
2018-05-24T02:35:19.602Z,16.68
2018-05-24T02:36:24.120Z,16.63
2018-05-24T02:37:28.644Z,16.78
2018-05-24T02:38:33.127Z,17.08
2018-05-24T02:39:37.582Z,17.15
2018-05-24T02:40:42.082Z,17.21
2018-05-24T02:41:47.048Z,17.38
2018-05-24T02:42:51.521Z,17.46
2018-05-24T02:43:56.114Z,17.47
2018-05-24T02:45:00.710Z,17.48
2018-05-24T02:46:05.409Z,17.56
2018-05-24T02:47:09.988Z,17.61
2018-05-24T02:48:14.859Z,17.75
2018-05-24T02:49:19.421Z,17.89
2018-05-24T02:50:24.002Z,17.97
2018-05-24T02:51:28.672Z,17.90
2018-05-24T02:52:33.193Z,17.79
2018-05-24T02:53:37.805Z,17.78
2018-05-24T02:54:42.670Z,17.77
2018-05-24T02:55:47.240Z,17.63
2018-05-24T02:56:51.856Z,17.73
2018-05-24T02:57:56.429Z,17.72
2018-05-24T02:59:01.073Z,17.66
2018-05-24T03:00:05.660Z,17.58
2018-05-24T03:01:10.700Z,17.58
2018-05-24T03:02:15.272Z,17.69
2018-05-24T03:03:19.843Z,17.72
2018-05-24T03:04:24.369Z,17.81
2018-05-24T03:05:29.021Z,17.76
2018-05-24T03:06:33.617Z,17.77
2018-05-24T03:07:38.453Z,17.72
2018-05-24T03:08:43.034Z,17.76
2018-05-24T03:09:47.586Z,17.77
2018-05-24T03:10:52.180Z,17.77
2018-05-24T03:11:57.064Z,17.72
2018-05-24T03:13:01.679Z,17.75
2018-05-24T03:14:06.652Z,17.70
2018-05-24T03:15:11.276Z,17.65
2018-05-24T03:16:15.815Z,17.69
2018-05-24T03:17:20.342Z,17.79
2018-05-24T03:18:24.962Z,17.75
2018-05-24T03:19:29.498Z,17.75
2018-05-24T03:20:34.356Z,17.76
2018-05-24T03:21:38.933Z,17.70
2018-05-24T03:22:43.385Z,17.75
2018-05-24T03:23:47.896Z,17.80
2018-05-24T03:24:52.345Z,17.77
2018-05-24T03:25:56.774Z,17.82
2018-05-24T03:27:01.557Z,17.73
2018-05-24T03:28:06.042Z,17.73
2018-05-24T03:29:10.513Z,17.71
2018-05-24T03:30:14.958Z,17.72
2018-05-24T03:31:19.378Z,17.72
2018-05-24T03:32:23.851Z,17.74
2018-05-24T03:33:28.949Z,17.76
2018-05-24T03:34:33.498Z,17.67
2018-05-24T03:35:37.946Z,17.66
2018-05-24T03:36:42.411Z,17.65
2018-05-24T03:37:46.865Z,17.64
2018-05-24T03:38:51.341Z,17.61
2018-05-24T03:39:56.194Z,17.67
2018-05-24T03:41:00.790Z,17.66
2018-05-24T03:42:05.299Z,17.59
2018-05-24T03:43:09.770Z,17.59
2018-05-24T03:44:14.340Z,17.64
2018-05-24T03:45:18.893Z,17.73
2018-05-24T03:46:23.845Z,17.72
2018-05-24T03:47:29.210Z,17.61
2018-05-24T03:48:35.541Z,17.63
2018-05-24T03:49:40.121Z,17.73
2018-05-24T03:50:45.040Z,17.59
2018-05-24T03:51:49.630Z,17.54
2018-05-24T03:52:54.930Z,17.46
2018-05-24T03:53:59.486Z,17.44
2018-05-24T03:55:04.053Z,17.34
2018-05-24T03:56:08.674Z,17.30
2018-05-24T03:57:13.210Z,17.25
2018-05-24T03:58:17.778Z,17.28
2018-05-24T03:59:25.689Z,17.25
2018-05-24T04:02:37.286Z,17.20
2018-05-24T04:03:48.683Z,17.04
2018-05-24T04:04:53.705Z,17.15
2018-05-24T04:05:58.305Z,17.00
2018-05-24T04:07:04.963Z,16.95
2018-05-24T04:08:09.638Z,16.79
2018-05-24T04:09:14.301Z,16.76
2018-05-24T04:10:18.877Z,16.85
2018-05-24T04:11:23.407Z,16.97
2018-05-24T04:12:27.978Z,16.83
2018-05-24T04:13:32.488Z,16.60
2018-05-24T04:14:37.022Z,16.46
2018-05-24T04:15:41.546Z,16.36
2018-05-24T04:16:46.308Z,16.29
2018-05-24T04:17:50.806Z,16.28
2018-05-24T04:18:55.229Z,16.13
2018-05-24T04:19:59.684Z,16.03
2018-05-24T04:21:04.121Z,15.91
2018-05-24T04:22:08.573Z,15.88
2018-05-24T04:23:13.373Z,15.84
2018-05-24T04:24:17.831Z,15.81
2018-05-24T04:25:22.330Z,15.78
2018-05-24T04:26:26.774Z,15.75
2018-05-24T04:27:31.208Z,15.82
2018-05-24T04:28:35.684Z,15.81
2018-05-24T04:29:40.217Z,15.78
2018-05-24T04:30:44.683Z,15.87
2018-05-24T04:31:49.129Z,15.89
2018-05-24T04:32:53.602Z,15.77
2018-05-24T04:33:58.017Z,15.85
2018-05-24T04:35:02.778Z,15.80
2018-05-24T04:36:07.245Z,15.79
2018-05-24T04:37:11.713Z,15.95
2018-05-24T04:38:16.180Z,15.80
2018-05-24T04:39:20.622Z,15.77
2018-05-24T04:40:25.062Z,15.67
2018-05-24T04:41:29.824Z,15.71
2018-05-24T04:42:34.290Z,15.64
2018-05-24T04:43:38.703Z,15.67
2018-05-24T04:44:43.179Z,15.71
2018-05-24T04:45:47.645Z,15.67
2018-05-24T04:46:56.315Z,15.80
2018-05-24T04:48:01.074Z,15.90
2018-05-24T04:49:05.579Z,15.87
2018-05-24T04:50:10.053Z,15.90
2018-05-24T04:51:14.490Z,15.86
2018-05-24T04:52:18.987Z,15.94
2018-05-24T04:53:23.502Z,15.86
2018-05-24T04:54:28.531Z,15.85
2018-05-24T04:55:33.002Z,15.84
2018-05-24T04:56:37.529Z,15.87
2018-05-24T04:57:41.989Z,15.87
2018-05-24T04:58:46.490Z,15.87
2018-05-24T04:59:50.988Z,15.87
2018-05-24T05:00:55.847Z,15.82
2018-05-24T05:02:00.640Z,15.77
2018-05-24T05:03:05.096Z,15.60
2018-05-24T05:04:09.653Z,15.60
2018-05-24T05:05:14.108Z,15.60
2018-05-24T05:06:19.310Z,15.65
2018-05-24T05:07:23.801Z,15.60
2018-05-24T05:08:28.268Z,15.38
2018-05-24T05:09:32.734Z,15.33
2018-05-24T05:10:37.187Z,15.45
2018-05-24T05:11:41.639Z,15.41
2018-05-24T05:12:46.439Z,15.39
2018-05-24T05:13:50.892Z,15.38
2018-05-24T05:14:55.407Z,15.38
2018-05-24T05:15:59.893Z,15.42
2018-05-24T05:17:04.994Z,15.31
2018-05-24T05:18:09.478Z,15.23
2018-05-24T05:19:14.362Z,15.11
2018-05-24T05:20:18.786Z,14.97
2018-05-24T05:21:23.230Z,15.05
2018-05-24T05:22:27.791Z,15.16
2018-05-24T05:23:32.315Z,15.13
2018-05-24T05:24:37.664Z,15.16
2018-05-24T05:25:43.298Z,15.20
2018-05-24T05:26:47.857Z,15.17
2018-05-24T05:27:52.358Z,15.15
2018-05-24T05:28:56.815Z,15.08
2018-05-24T05:30:01.359Z,15.05
2018-05-24T05:31:05.853Z,14.96
2018-05-24T05:32:10.701Z,15.00
2018-05-24T05:33:15.278Z,15.09
2018-05-24T05:34:19.875Z,15.24
2018-05-24T05:35:24.467Z,15.22
2018-05-24T05:36:29.096Z,15.28
2018-05-24T05:37:33.695Z,15.41
2018-05-24T05:38:38.560Z,15.54
2018-05-24T05:39:43.131Z,15.60
2018-05-24T05:40:48.538Z,15.68
2018-05-24T05:41:53.118Z,15.75
2018-05-24T05:42:57.679Z,15.62
2018-05-24T05:44:02.196Z,15.41
2018-05-24T05:45:06.999Z,15.26
2018-05-24T05:46:11.567Z,15.35
2018-05-24T05:47:16.171Z,15.49
2018-05-24T05:48:20.903Z,15.51
2018-05-24T05:49:25.513Z,15.41
2018-05-24T05:50:30.072Z,15.33
2018-05-24T05:51:35.245Z,15.43
2018-05-24T05:52:39.822Z,15.49
2018-05-24T05:53:44.388Z,15.56
2018-05-24T05:54:48.953Z,15.67
2018-05-24T05:55:53.538Z,15.81
2018-05-24T05:56:58.089Z,15.81
2018-05-24T05:58:02.959Z,15.90
2018-05-24T05:59:07.541Z,15.93
2018-05-24T06:00:12.178Z,15.95
2018-05-24T06:01:16.774Z,15.96
2018-05-24T06:02:21.347Z,15.78
2018-05-24T06:03:25.946Z,15.77
2018-05-24T06:04:30.868Z,15.67
2018-05-24T06:05:35.452Z,15.58
2018-05-24T06:06:39.908Z,15.50
2018-05-24T06:07:44.362Z,15.56
2018-05-24T06:08:48.880Z,15.70
2018-05-24T06:09:53.313Z,15.60
2018-05-24T06:10:57.774Z,15.54
2018-05-24T06:12:02.293Z,15.31
2018-05-24T06:13:06.805Z,15.33
2018-05-24T06:14:11.414Z,15.29
2018-05-24T06:15:15.961Z,15.31
2018-05-24T06:16:20.924Z,15.30
2018-05-24T06:17:25.544Z,15.36
2018-05-24T06:18:30.154Z,15.34
2018-05-24T06:19:34.619Z,15.29
2018-05-24T06:20:39.176Z,15.28
2018-05-24T06:21:43.862Z,15.15
2018-05-24T06:22:48.765Z,15.13
2018-05-24T06:23:53.237Z,15.37
2018-05-24T06:24:57.693Z,15.55
2018-05-24T06:26:02.388Z,15.47
2018-05-24T06:27:06.861Z,15.34
2018-05-24T06:28:11.345Z,15.34
2018-05-24T06:29:16.225Z,15.24
2018-05-24T06:30:20.756Z,15.30
2018-05-24T06:31:25.217Z,15.24
2018-05-24T06:32:29.759Z,15.32
2018-05-24T06:33:34.200Z,15.31
2018-05-24T06:34:38.680Z,15.34
2018-05-24T06:35:43.563Z,15.41
2018-05-24T06:36:48.138Z,15.43
2018-05-24T06:37:52.688Z,15.50
2018-05-24T06:38:57.214Z,15.58
2018-05-24T06:40:01.710Z,15.72
2018-05-24T06:41:06.229Z,15.70
2018-05-24T06:42:11.313Z,15.65
2018-05-24T06:43:15.936Z,15.57
2018-05-24T06:44:20.434Z,15.58
2018-05-24T06:45:24.949Z,15.72
2018-05-24T06:46:29.555Z,15.71
2018-05-24T06:47:34.206Z,15.62
2018-05-24T06:48:39.286Z,15.53
2018-05-24T06:49:44.526Z,15.43
2018-05-24T06:50:50.320Z,15.47
2018-05-24T06:51:58.233Z,15.56
2018-05-24T06:53:02.869Z,15.65
2018-05-24T06:54:07.758Z,15.69
2018-05-24T06:55:12.840Z,15.72
2018-05-24T06:56:17.534Z,15.81
2018-05-24T06:57:22.192Z,15.84
2018-05-24T06:58:26.802Z,15.86
2018-05-24T06:59:31.401Z,15.91
2018-05-24T07:00:36.769Z,16.01
2018-05-24T07:01:42.318Z,16.08
2018-05-24T07:02:46.976Z,16.08
2018-05-24T07:03:52.245Z,16.21
2018-05-24T07:04:57.123Z,16.36
2018-05-24T07:06:01.843Z,16.56
2018-05-24T07:07:06.298Z,16.66
2018-05-24T07:08:11.175Z,16.77
2018-05-24T07:09:15.763Z,16.91
2018-05-24T07:10:20.639Z,17.01
2018-05-24T07:11:25.182Z,16.96
2018-05-24T07:12:29.793Z,17.08
2018-05-24T07:13:34.396Z,17.14
2018-05-24T07:14:39.416Z,17.44
2018-05-24T07:15:44.040Z,17.67
2018-05-24T07:16:48.642Z,17.84
2018-05-24T07:17:53.219Z,17.94
2018-05-24T07:18:57.861Z,17.73
2018-05-24T07:20:02.436Z,17.57
2018-05-24T07:21:07.445Z,17.63
2018-05-24T07:22:12.056Z,17.80
2018-05-24T07:23:16.581Z,17.99
2018-05-24T07:24:21.153Z,18.03
2018-05-24T07:25:25.679Z,18.09
2018-05-24T07:26:30.244Z,18.15
2018-05-24T07:27:34.860Z,18.12
2018-05-24T07:28:39.572Z,18.03
2018-05-24T07:29:44.178Z,18.25
2018-05-24T07:30:48.676Z,18.29
2018-05-24T07:31:53.151Z,18.37
2018-05-24T07:32:57.631Z,18.33
2018-05-24T07:34:02.441Z,18.02
2018-05-24T07:35:07.249Z,17.57
2018-05-24T07:36:11.891Z,17.40
2018-05-24T07:37:16.515Z,17.56
2018-05-24T07:38:21.024Z,18.04
2018-05-24T07:39:25.469Z,18.31
2018-05-24T07:40:30.416Z,18.02
2018-05-24T07:41:36.303Z,18.10
2018-05-24T07:42:41.559Z,18.05
2018-05-24T07:43:48.807Z,17.55
2018-05-24T07:44:54.638Z,17.67
2018-05-24T07:45:59.856Z,17.60
2018-05-24T07:47:06.092Z,17.86
2018-05-24T07:48:12.334Z,18.09
2018-05-24T07:49:17.613Z,18.01
2018-05-24T07:50:22.730Z,17.90
2018-05-24T07:51:28.428Z,17.98
2018-05-24T07:52:34.898Z,17.72
2018-05-24T07:53:40.048Z,17.82
2018-05-24T07:54:46.223Z,18.04
2018-05-24T07:55:52.018Z,18.24
2018-05-24T07:56:57.331Z,18.19
2018-05-24T07:58:02.404Z,18.23
2018-05-24T07:59:08.498Z,18.26
2018-05-24T08:00:13.999Z,18.34
2018-05-24T08:01:18.669Z,18.66
2018-05-24T08:02:25.227Z,18.89
2018-05-24T08:03:30.215Z,18.76
2018-05-24T08:04:35.478Z,18.93
2018-05-24T08:05:41.966Z,19.04
2018-05-24T08:06:47.995Z,19.07
2018-05-24T08:07:53.315Z,18.99
2018-05-24T08:08:58.421Z,18.85
2018-05-24T08:10:03.742Z,18.56
2018-05-24T08:11:10.347Z,18.59
2018-05-24T08:12:17.101Z,18.52
2018-05-24T08:13:21.901Z,18.55
2018-05-24T08:14:26.975Z,18.58
2018-05-24T08:15:33.074Z,18.53
2018-05-24T08:16:38.119Z,18.67
2018-05-24T08:17:44.178Z,18.77
2018-05-24T08:18:49.810Z,18.29
2018-05-24T08:19:56.330Z,18.29
2018-05-24T08:21:01.919Z,18.17
2018-05-24T08:22:07.426Z,17.93
2018-05-24T08:23:13.180Z,17.94
2018-05-24T08:24:18.706Z,17.89
2018-05-24T08:25:24.694Z,17.81
2018-05-24T08:26:32.270Z,17.56
2018-05-24T08:27:36.983Z,17.63
2018-05-24T08:28:41.883Z,17.86
2018-05-24T08:29:46.698Z,17.81
2018-05-24T08:30:52.741Z,17.86
2018-05-24T08:31:58.492Z,18.02
2018-05-24T08:33:04.169Z,18.09
2018-05-24T08:34:09.153Z,17.85
2018-05-24T08:35:14.675Z,17.69
2018-05-24T08:36:23.220Z,17.78
2018-05-24T08:37:28.184Z,17.71
2018-05-24T08:38:32.970Z,17.61
2018-05-24T08:39:37.634Z,17.73
2018-05-24T08:40:42.219Z,17.85
2018-05-24T08:41:46.786Z,17.66
2018-05-24T08:42:51.553Z,17.47
2018-05-24T08:43:56.604Z,17.69
2018-05-24T08:45:01.170Z,17.64
2018-05-24T08:46:05.852Z,17.71
2018-05-24T08:47:10.572Z,17.65
2018-05-24T08:48:15.109Z,17.81
2018-05-24T08:49:19.691Z,17.88
2018-05-24T08:50:24.718Z,17.90
2018-05-24T08:51:29.720Z,18.00
2018-05-24T08:52:34.370Z,17.98
2018-05-24T08:53:39.084Z,18.01
2018-05-24T08:54:43.711Z,17.92
2018-05-24T08:55:48.415Z,17.97
2018-05-24T08:56:53.495Z,18.13
2018-05-24T08:57:58.216Z,18.14
2018-05-24T08:59:02.850Z,18.08
2018-05-24T09:00:08.158Z,18.14
2018-05-24T09:01:13.129Z,17.90
2018-05-24T09:02:17.763Z,17.85
2018-05-24T09:03:22.797Z,17.91
2018-05-24T09:04:27.470Z,17.92
2018-05-24T09:05:32.098Z,17.87
2018-05-24T09:06:36.709Z,17.87
2018-05-24T09:07:41.374Z,17.98
2018-05-24T09:08:46.071Z,18.02
2018-05-24T09:09:51.057Z,17.98
2018-05-24T09:10:55.689Z,17.94
2018-05-24T09:12:00.241Z,17.78
2018-05-24T09:13:04.759Z,17.78
2018-05-24T09:14:10.332Z,17.63
2018-05-24T09:15:15.061Z,17.68
2018-05-24T09:16:20.672Z,17.58
2018-05-24T09:17:26.121Z,17.57
2018-05-24T09:18:31.107Z,17.59
2018-05-24T09:19:37.358Z,17.62
2018-05-24T09:20:42.848Z,17.63
2018-05-24T09:21:47.844Z,17.53
2018-05-24T09:22:53.832Z,17.54
2018-05-24T09:23:58.831Z,17.67
2018-05-24T09:25:04.553Z,17.68
2018-05-24T09:26:09.898Z,17.69
2018-05-24T09:27:15.010Z,17.77
2018-05-24T09:28:21.338Z,17.69
2018-05-24T09:29:27.088Z,17.76
2018-05-24T09:30:32.183Z,17.87
2018-05-24T09:31:37.559Z,17.90
2018-05-24T09:32:43.344Z,18.00
2018-05-24T09:33:48.641Z,17.85
2018-05-24T09:34:54.229Z,17.87
2018-05-24T09:35:59.785Z,17.87
2018-05-24T09:37:05.078Z,18.06
2018-05-24T09:38:10.449Z,18.00
2018-05-24T09:39:16.684Z,17.98
2018-05-24T09:40:22.253Z,18.09
2018-05-24T09:41:27.572Z,18.17
2018-05-24T09:42:33.422Z,18.18
2018-05-24T09:43:38.482Z,18.36
2018-05-24T09:44:43.801Z,18.27
2018-05-24T09:45:50.567Z,18.29
2018-05-24T09:46:56.162Z,18.30
2018-05-24T09:48:02.057Z,18.38
2018-05-24T09:49:07.415Z,18.47
2018-05-24T09:50:12.729Z,18.42
2018-05-24T09:51:18.197Z,18.58
2018-05-24T09:52:24.309Z,18.60
2018-05-24T09:53:29.857Z,18.61
2018-05-24T09:54:35.302Z,18.41
2018-05-24T09:55:40.503Z,18.30
2018-05-24T09:56:47.073Z,18.26
2018-05-24T09:57:52.574Z,18.37
2018-05-24T09:58:58.311Z,18.54
2018-05-24T10:00:03.342Z,18.52
2018-05-24T10:01:07.970Z,18.55
2018-05-24T10:02:13.106Z,18.62
2018-05-24T10:03:17.726Z,18.83
2018-05-24T10:04:22.678Z,19.03
2018-05-24T10:05:27.486Z,19.25
2018-05-24T10:06:32.474Z,19.28
2018-05-24T10:07:37.794Z,19.30
2018-05-24T10:08:43.822Z,19.53
2018-05-24T10:09:50.042Z,19.44
2018-05-24T10:10:55.096Z,19.19
2018-05-24T10:12:00.124Z,19.13
2018-05-24T10:13:05.842Z,19.10
2018-05-24T10:14:11.089Z,18.95
2018-05-24T10:15:17.090Z,18.91
2018-05-24T10:16:21.860Z,19.00
2018-05-24T10:17:26.933Z,19.11
2018-05-24T10:18:32.854Z,19.08
2018-05-24T10:19:38.369Z,19.21
2018-05-24T10:20:44.338Z,19.13
2018-05-24T10:21:51.115Z,19.06
2018-05-24T10:22:56.951Z,19.02
2018-05-24T10:24:02.088Z,19.10
2018-05-24T10:25:06.910Z,19.09
2018-05-24T10:26:14.283Z,19.09
2018-05-24T10:27:19.152Z,19.12
2018-05-24T10:28:24.552Z,19.15
2018-05-24T10:29:29.540Z,19.11
2018-05-24T10:30:34.360Z,18.94
2018-05-24T10:31:39.336Z,18.84
2018-05-24T10:32:45.676Z,18.83
2018-05-24T10:33:51.016Z,18.79
2018-05-24T10:34:57.944Z,18.76
2018-05-24T10:36:02.947Z,18.69
2018-05-24T10:37:08.853Z,18.47
2018-05-24T10:38:13.501Z,18.44
2018-05-24T10:39:18.524Z,18.34
2018-05-24T10:40:23.750Z,18.33
2018-05-24T10:41:29.267Z,18.39
2018-05-24T10:42:35.424Z,18.40
2018-05-24T10:43:41.594Z,18.49
2018-05-24T10:44:46.584Z,18.50
2018-05-24T10:45:51.546Z,18.46
2018-05-24T10:46:59.023Z,18.55
2018-05-24T10:48:05.244Z,18.57
2018-05-24T10:49:10.581Z,18.64
2018-05-24T10:50:16.570Z,18.57
2018-05-24T10:51:21.468Z,18.66
2018-05-24T10:52:27.134Z,18.70
2018-05-24T10:53:32.831Z,18.61
2018-05-24T10:54:37.936Z,18.61
2018-05-24T10:55:42.891Z,18.70
2018-05-24T10:56:48.730Z,18.82
2018-05-24T10:57:54.361Z,18.92
2018-05-24T10:58:59.310Z,18.97
2018-05-24T11:00:04.469Z,18.90
2018-05-24T11:01:10.857Z,18.89
2018-05-24T11:02:17.244Z,18.92
2018-05-24T11:03:22.228Z,19.00
2018-05-24T11:04:28.154Z,19.00
2018-05-24T11:05:33.629Z,18.95
2018-05-24T11:06:41.231Z,18.89
2018-05-24T11:07:46.276Z,18.83
2018-05-24T11:08:51.139Z,18.81
2018-05-24T11:09:56.673Z,18.76
2018-05-24T11:11:01.616Z,18.57
2018-05-24T11:12:07.443Z,18.66
2018-05-24T11:13:12.558Z,18.75
2018-05-24T11:14:18.217Z,18.75
2018-05-24T11:15:23.862Z,18.56
2018-05-24T11:16:29.561Z,18.46
2018-05-24T11:17:34.934Z,18.51
2018-05-24T11:18:40.390Z,18.49
2018-05-24T11:19:45.914Z,18.49
2018-05-24T11:20:51.210Z,18.34
2018-05-24T11:21:56.104Z,18.36
2018-05-24T11:23:01.302Z,18.48
2018-05-24T11:24:08.941Z,18.55
2018-05-24T11:25:14.794Z,18.61
2018-05-24T11:26:19.681Z,18.49
2018-05-24T11:28:28.900Z,18.50
2018-05-24T11:29:35.189Z,18.58
2018-05-24T11:30:40.347Z,18.74
2018-05-24T11:31:45.720Z,18.69
2018-05-24T11:32:51.151Z,18.55
2018-05-24T11:33:57.497Z,18.45
2018-05-24T11:35:02.469Z,18.42
2018-05-24T11:36:07.484Z,18.45
2018-05-24T11:37:13.862Z,18.45
2018-05-24T11:38:21.983Z,18.35
2018-05-24T11:39:26.793Z,18.40
2018-05-24T11:40:31.418Z,18.36
2018-05-24T11:41:37.130Z,18.46
2018-05-24T11:42:41.813Z,18.48
2018-05-24T11:43:46.998Z,18.45
2018-05-24T11:44:52.508Z,18.38
2018-05-24T11:45:58.446Z,18.42
2018-05-24T11:47:03.322Z,18.25
2018-05-24T11:48:09.426Z,18.27
2018-05-24T11:49:14.282Z,18.33
2018-05-24T11:50:19.672Z,18.27
2018-05-24T11:51:25.204Z,18.35
2018-05-24T11:52:30.196Z,18.43
2018-05-24T11:53:36.255Z,18.50
2018-05-24T11:54:42.806Z,18.23
2018-05-24T11:55:49.099Z,18.08
2018-05-24T11:56:54.943Z,18.03
2018-05-24T11:58:01.161Z,18.03
2018-05-24T11:59:06.347Z,18.14
2018-05-24T12:00:12.436Z,18.05
2018-05-24T12:01:18.798Z,18.02
2018-05-24T12:02:24.367Z,18.17
2018-05-24T12:03:30.115Z,18.23
2018-05-24T12:04:35.456Z,18.14
2018-05-24T12:05:40.307Z,18.29
2018-05-24T12:06:45.363Z,18.33
2018-05-24T12:07:50.916Z,18.35
2018-05-24T12:08:58.437Z,18.50
2018-05-24T12:10:03.695Z,18.48
2018-05-24T12:11:08.866Z,18.62
2018-05-24T12:12:13.604Z,18.80
2018-05-24T12:13:18.251Z,18.73
2018-05-24T12:14:22.892Z,18.66
2018-05-24T12:15:27.539Z,18.65
2018-05-24T12:16:32.594Z,18.79
2018-05-24T12:17:37.648Z,18.80
2018-05-24T12:19:46.801Z,18.62
2018-05-24T12:20:51.874Z,18.50
2018-05-24T12:21:56.783Z,18.55
2018-05-24T12:23:02.372Z,18.44
2018-05-24T12:24:07.651Z,18.39
2018-05-24T12:25:13.334Z,18.35
2018-05-24T12:26:18.748Z,18.49
2018-05-24T12:27:24.637Z,18.39
2018-05-24T12:28:30.791Z,18.22
2018-05-24T12:29:35.561Z,18.28
2018-05-24T12:30:41.087Z,18.34
2018-05-24T12:31:46.068Z,18.53
2018-05-24T12:32:51.114Z,18.64
2018-05-24T12:33:56.169Z,18.66
2018-05-24T12:35:00.862Z,18.56
2018-05-24T12:36:05.723Z,18.56
2018-05-24T12:37:10.924Z,18.53
2018-05-24T12:38:15.823Z,18.57
2018-05-24T12:39:20.706Z,18.44
2018-05-24T12:40:25.405Z,18.42
2018-05-24T12:41:30.078Z,18.31
2018-05-24T12:42:34.642Z,18.24
2018-05-24T12:43:39.675Z,18.10
2018-05-24T12:44:44.359Z,18.13
2018-05-24T12:45:48.993Z,18.17
2018-05-24T12:46:54.603Z,18.13
2018-05-24T12:47:59.557Z,18.17
2018-05-24T12:49:05.233Z,18.20
2018-05-24T12:50:11.378Z,18.14
2018-05-24T12:51:16.181Z,18.00
2018-05-24T12:52:21.230Z,18.02
2018-05-24T12:53:25.771Z,18.00
2018-05-24T12:54:30.450Z,17.95
2018-05-24T12:55:35.093Z,17.97
2018-05-24T12:56:41.291Z,17.99
2018-05-24T12:57:45.985Z,17.90
2018-05-24T12:58:51.729Z,17.82
2018-05-24T12:59:56.873Z,17.84
2018-05-24T13:01:01.706Z,17.91
2018-05-24T13:02:07.509Z,17.98
2018-05-24T13:03:13.486Z,18.02
2018-05-24T13:04:18.379Z,18.11
2018-05-24T13:05:23.516Z,18.20
2018-05-24T13:06:28.491Z,18.20
2018-05-24T13:07:33.577Z,18.26
2018-05-24T13:08:38.494Z,18.32
2018-05-24T13:09:44.752Z,18.42
2018-05-24T13:10:51.541Z,18.45
2018-05-24T13:11:57.757Z,18.76
2018-05-24T13:13:02.739Z,19.00
2018-05-24T13:14:07.638Z,18.88
2018-05-24T13:15:13.446Z,18.52
2018-05-24T13:16:18.968Z,18.52
2018-05-24T13:17:23.658Z,18.43
2018-05-24T13:18:28.872Z,18.23
2018-05-24T13:19:34.037Z,18.20
2018-05-24T13:20:41.620Z,18.17
2018-05-24T13:21:46.385Z,18.20
2018-05-24T13:22:51.739Z,18.31
2018-05-24T13:23:57.122Z,18.23
2018-05-24T13:25:03.924Z,18.22
2018-05-24T13:26:08.585Z,18.21
2018-05-24T13:27:13.550Z,18.18
2018-05-24T13:28:19.391Z,18.20
2018-05-24T13:29:24.509Z,18.23
2018-05-24T13:30:30.646Z,18.18
2018-05-24T13:31:35.596Z,18.20
2018-05-24T13:32:40.596Z,18.34
2018-05-24T13:33:45.622Z,18.36
2018-05-24T13:34:51.800Z,18.31
2018-05-24T13:35:59.526Z,18.33
2018-05-24T13:37:07.349Z,18.36
2018-05-24T13:38:12.365Z,18.30
2018-05-24T13:39:17.074Z,18.38
2018-05-24T13:40:22.705Z,18.32
2018-05-24T13:41:27.650Z,18.20
2018-05-24T13:42:33.599Z,18.28
2018-05-24T13:43:40.376Z,18.21
2018-05-24T13:44:45.138Z,18.45
2018-05-24T13:45:50.743Z,18.65
2018-05-24T13:46:56.467Z,18.63
2018-05-24T13:48:02.184Z,18.78
2018-05-24T13:49:06.920Z,18.60
2018-05-24T13:50:12.575Z,18.45
2018-05-24T13:51:17.464Z,18.21
2018-05-24T13:52:22.578Z,18.05
2018-05-24T13:53:27.738Z,17.99
2018-05-24T13:54:34.219Z,17.95
2018-05-24T13:55:39.436Z,17.84
2018-05-24T13:56:44.922Z,17.81
2018-05-24T13:57:51.449Z,17.99
2018-05-24T13:58:57.684Z,17.96
2018-05-24T14:00:02.659Z,17.83
2018-05-24T14:01:08.520Z,17.85